In Rescue
 
Open Full Screen Window  High Contrast Mode
Wind Gusting 18 knots
09
March 29, 2020 7:28 PM EDT
Present Weather: Light Rain
Weather Information
Wind Direction
  260 °
Wind Speed
  09 kt (10 mph)
Wind Gust
  18 kt (21 mph)
Altimeter
29.62 in
Visibility
2 SM
Temperature
05° C
41° F
Dewpoint
05° C
41° F
Humidity
100%
1hr Rain Fall
00.01 in.
24hr Rain Fall
00.94 in.
Sky Condition
Overcast @ 600 ft
IFR

METAR KLDM 292328Z AUTO 26009G18KT 2SM -RA OVC006 05/05 A2962 RMK AO2 P0001 T00470047

FAA Disclaimer: The data displayed is for advisory purposes only and is not to be used for flight planning or operations.